createdAt,value
2022-12-11T04:57:17.134Z,43.56
2022-12-11T04:58:18.015Z,43.53
2022-12-11T04:59:19.166Z,42.53
2022-12-11T05:00:20.074Z,37.15
2022-12-11T05:01:21.870Z,36.33
2022-12-11T05:02:22.921Z,33.97
2022-12-11T05:03:24.148Z,40.28
2022-12-11T05:04:25.573Z,43.42
2022-12-11T05:05:26.936Z,44.00
2022-12-11T05:06:27.781Z,35.92
2022-12-11T05:07:28.985Z,41.65
2022-12-11T05:08:29.840Z,39.72
2022-12-11T05:09:31.006Z,43.40
2022-12-11T05:10:31.854Z,35.08
2022-12-11T05:11:33.290Z,31.30
2022-12-11T05:12:34.849Z,37.85
2022-12-11T05:13:36.030Z,34.85
2022-12-11T05:14:36.885Z,34.30
2022-12-11T05:15:38.806Z,31.00
2022-12-11T05:16:39.674Z,34.90
2022-12-11T05:17:40.857Z,33.67
2022-12-11T05:18:42.001Z,34.53
2022-12-11T05:19:43.144Z,40.97
2022-12-11T05:20:44.265Z,40.10
2022-12-11T05:21:45.397Z,41.50
2022-12-11T05:22:46.593Z,41.78
2022-12-11T05:23:47.442Z,43.70
2022-12-11T05:24:48.613Z,38.00
2022-12-11T05:25:51.280Z,41.83
2022-12-11T05:26:52.425Z,41.20
2022-12-11T05:27:53.979Z,37.80
2022-12-11T05:28:55.267Z,33.45
2022-12-11T05:29:59.409Z,45.80
2022-12-11T05:31:02.342Z,38.95
2022-12-11T05:32:03.275Z,35.58
2022-12-11T05:33:04.479Z,42.97
2022-12-11T05:34:05.456Z,45.88
2022-12-11T05:35:07.000Z,35.05
2022-12-11T05:36:08.149Z,38.40
2022-12-11T05:37:09.665Z,40.50
2022-12-11T05:38:10.551Z,41.30
2022-12-11T05:39:11.978Z,37.23
2022-12-11T05:40:12.873Z,41.45
2022-12-11T05:41:16.684Z,34.35
2022-12-11T05:42:17.841Z,46.92
2022-12-11T05:43:19.371Z,44.55
2022-12-11T05:44:20.546Z,35.75
2022-12-11T05:45:21.381Z,39.40
2022-12-11T05:46:23.882Z,34.40
2022-12-11T05:47:24.861Z,43.17
2022-12-11T05:48:26.041Z,38.17
2022-12-11T05:49:30.831Z,38.17
2022-12-11T05:50:32.435Z,32.05
2022-12-11T05:51:34.205Z,31.40
2022-12-11T05:52:35.359Z,31.75
2022-12-11T05:53:37.006Z,35.90
2022-12-11T05:54:38.210Z,40.40
2022-12-11T05:55:39.049Z,39.42
2022-12-11T05:56:40.263Z,43.60
2022-12-11T05:57:41.328Z,40.30
2022-12-11T05:58:43.701Z,43.60
2022-12-11T05:59:44.696Z,36.60
2022-12-11T06:00:46.484Z,43.17
2022-12-11T06:01:47.563Z,45.58
2022-12-11T06:02:48.911Z,46.55
2022-12-11T06:03:49.943Z,47.55
2022-12-11T06:04:51.101Z,37.87
2022-12-11T06:05:51.965Z,39.70
2022-12-11T06:06:53.488Z,44.17
2022-12-11T06:07:54.441Z,40.30
2022-12-11T06:08:56.544Z,45.63
2022-12-11T06:09:57.397Z,38.53
2022-12-11T06:10:59.041Z,49.20
2022-12-11T06:11:59.904Z,35.97
2022-12-11T06:13:01.448Z,39.38
2022-12-11T06:14:03.455Z,41.45
2022-12-11T06:16:09.522Z,30.75
2022-12-11T06:17:10.728Z,26.65
2022-12-11T06:18:11.635Z,36.22
2022-12-11T06:19:13.297Z,39.67
2022-12-11T06:20:14.193Z,41.67
2022-12-11T06:21:16.941Z,46.90
2022-12-11T06:22:17.905Z,48.50
2022-12-11T06:23:19.071Z,57.53
2022-12-11T06:24:20.062Z,50.28
2022-12-11T06:25:21.222Z,38.00
2022-12-11T06:26:22.116Z,32.47
2022-12-11T06:27:23.730Z,31.90
2022-12-11T06:28:24.607Z,31.33
2022-12-11T06:29:26.457Z,34.97
2022-12-11T06:30:38.862Z,36.88
2022-12-11T06:31:40.819Z,31.80
2022-12-11T06:32:42.239Z,37.67
2022-12-11T06:33:43.517Z,30.85
2022-12-11T06:34:44.548Z,31.20
2022-12-11T06:35:45.782Z,38.00
2022-12-11T06:36:46.612Z,45.70
2022-12-11T06:37:47.826Z,35.93
2022-12-11T06:38:49.053Z,45.42
2022-12-11T06:39:50.245Z,30.13
2022-12-11T06:40:53.869Z,34.08
2022-12-11T06:41:55.041Z,35.20
2022-12-11T06:42:55.865Z,29.75
2022-12-11T06:43:57.626Z,36.30
2022-12-11T06:44:59.226Z,35.63
2022-12-11T06:46:04.170Z,35.85
2022-12-11T06:47:05.691Z,34.17
2022-12-11T06:48:06.537Z,31.95
2022-12-11T06:49:07.722Z,36.72
2022-12-11T06:50:09.066Z,42.92
2022-12-11T06:51:10.854Z,26.27
2022-12-11T06:52:18.017Z,28.45
2022-12-11T06:53:19.701Z,28.67
2022-12-11T06:54:24.681Z,30.50
2022-12-11T06:55:25.886Z,32.33
2022-12-11T06:56:26.722Z,39.35
2022-12-11T06:57:27.845Z,38.45
2022-12-11T06:58:28.715Z,40.80
2022-12-11T06:59:29.888Z,31.10
2022-12-11T07:00:31.536Z,36.70
2022-12-11T07:01:32.722Z,43.08
2022-12-11T07:02:33.674Z,29.38
2022-12-11T07:03:34.923Z,32.75
2022-12-11T07:04:35.748Z,31.70
2022-12-11T07:05:36.960Z,32.30
2022-12-11T07:06:37.793Z,31.70
2022-12-11T07:07:38.950Z,29.98
2022-12-11T07:08:40.038Z,29.80
2022-12-11T07:09:41.205Z,38.00
2022-12-11T07:10:42.133Z,37.47
2022-12-11T07:11:43.284Z,31.40
2022-12-11T07:12:44.117Z,36.47
2022-12-11T07:13:45.673Z,34.67
2022-12-11T07:14:46.544Z,35.55
2022-12-11T07:15:48.458Z,31.58
2022-12-11T07:16:50.430Z,37.38
2022-12-11T07:18:52.323Z,33.75
2022-12-11T07:19:53.455Z,31.70
2022-12-11T07:20:54.305Z,42.50
2022-12-11T07:21:55.452Z,32.38
2022-12-11T07:22:56.280Z,44.60
2022-12-11T07:23:58.185Z,37.13
2022-12-11T07:26:04.191Z,32.50
2022-12-11T07:27:05.363Z,35.85
2022-12-11T07:28:06.499Z,26.45
2022-12-11T07:29:07.548Z,34.90
2022-12-11T07:30:10.031Z,27.30
2022-12-11T07:31:14.209Z,35.75
2022-12-11T07:32:15.536Z,40.97
2022-12-11T07:33:16.648Z,40.95
2022-12-11T07:34:17.833Z,38.53
2022-12-11T07:35:18.733Z,31.67
2022-12-11T07:36:19.980Z,30.15
2022-12-11T07:37:20.828Z,40.38
2022-12-11T07:38:22.177Z,51.63
2022-12-11T07:39:23.334Z,54.28
2022-12-11T07:40:24.170Z,41.35
2022-12-11T07:41:27.009Z,57.38
2022-12-11T07:42:27.847Z,39.85
2022-12-11T07:43:29.014Z,34.47
2022-12-11T07:44:29.863Z,35.40
2022-12-11T07:45:31.271Z,29.33
2022-12-11T07:46:33.584Z,52.03
2022-12-11T07:47:34.470Z,30.95
2022-12-11T07:48:35.722Z,31.23
2022-12-11T07:49:37.583Z,37.53
2022-12-11T07:50:40.017Z,32.72
2022-12-11T07:51:41.883Z,33.47
2022-12-11T07:52:43.785Z,40.58
2022-12-11T07:53:47.392Z,33.05
2022-12-11T07:54:48.219Z,42.15
2022-12-11T07:55:49.617Z,33.97
2022-12-11T07:56:53.744Z,47.63
2022-12-11T07:57:55.449Z,35.60
2022-12-11T07:58:58.118Z,29.08
2022-12-11T07:59:59.290Z,31.40
2022-12-11T08:01:01.122Z,35.03
2022-12-11T08:02:03.094Z,29.70
2022-12-11T08:04:05.379Z,29.77
2022-12-11T08:05:07.018Z,38.65
2022-12-11T08:06:08.681Z,38.17
2022-12-11T08:07:09.889Z,35.00
2022-12-11T08:08:11.088Z,27.67
2022-12-11T08:09:20.673Z,44.65
2022-12-11T08:10:22.333Z,38.80
2022-12-11T08:11:23.496Z,59.67
2022-12-11T08:12:24.363Z,38.13
2022-12-11T08:13:25.493Z,38.28
2022-12-11T08:14:26.355Z,46.33
2022-12-11T08:15:27.576Z,46.10
2022-12-11T08:16:28.987Z,35.28
2022-12-11T08:17:35.167Z,39.78
2022-12-11T08:18:40.025Z,34.72
2022-12-11T08:19:41.332Z,30.63
2022-12-11T08:20:42.227Z,34.97
2022-12-11T08:21:43.608Z,32.47
2022-12-11T08:22:44.477Z,51.35
2022-12-11T08:23:45.902Z,50.17
2022-12-11T08:24:47.262Z,45.72
2022-12-11T08:25:48.102Z,35.50
2022-12-11T08:26:49.268Z,39.43
2022-12-11T08:27:50.147Z,42.90
2022-12-11T08:28:51.433Z,35.35
2022-12-11T08:29:52.626Z,32.15
2022-12-11T08:30:53.496Z,38.92
2022-12-11T08:31:54.729Z,58.45
2022-12-11T08:32:56.308Z,37.97
2022-12-11T08:33:57.795Z,56.47
2022-12-11T08:34:58.938Z,41.25
2022-12-11T08:36:01.815Z,51.10
2022-12-11T08:37:03.083Z,39.65
2022-12-11T08:38:03.965Z,39.50
2022-12-11T08:39:05.176Z,39.63
2022-12-11T08:40:06.792Z,44.55
2022-12-11T08:41:08.420Z,33.20
2022-12-11T08:42:09.604Z,44.00
2022-12-11T08:43:10.473Z,47.40
2022-12-11T08:44:16.257Z,47.15
2022-12-11T08:45:17.653Z,37.28
2022-12-11T08:46:18.929Z,35.97
2022-12-11T08:47:19.969Z,36.72
2022-12-11T08:48:21.822Z,31.50
2022-12-11T08:49:23.045Z,36.85
2022-12-11T08:50:24.753Z,36.03
2022-12-11T08:51:26.547Z,34.67
2022-12-11T08:52:27.696Z,52.17
2022-12-11T08:53:28.998Z,40.80
2022-12-11T08:54:30.273Z,45.35
2022-12-11T08:55:31.718Z,39.13
2022-12-11T08:56:32.578Z,48.72
2022-12-11T08:57:33.714Z,42.03
2022-12-11T08:58:35.397Z,49.95
2022-12-11T08:59:36.241Z,38.17
2022-12-11T09:00:37.541Z,51.83
2022-12-11T09:01:38.502Z,52.58
2022-12-11T09:02:39.874Z,35.33
2022-12-11T09:03:42.906Z,40.28
2022-12-11T09:04:44.134Z,35.05
2022-12-11T09:05:44.961Z,38.47
2022-12-11T09:06:46.161Z,36.80
2022-12-11T09:07:47.173Z,36.60
2022-12-11T09:08:52.471Z,54.57
2022-12-11T09:09:53.811Z,41.67
2022-12-11T09:10:55.000Z,45.47
2022-12-11T09:11:55.978Z,41.53
2022-12-11T09:12:57.162Z,34.90
2022-12-11T09:14:03.533Z,66.20
2022-12-11T09:15:06.641Z,31.33
2022-12-11T09:16:09.001Z,30.08
2022-12-11T09:17:10.233Z,25.75
2022-12-11T09:18:11.065Z,30.40
2022-12-11T09:19:13.647Z,48.90
2022-12-11T09:20:14.871Z,45.03
2022-12-11T09:21:17.276Z,35.13
2022-12-11T09:22:18.629Z,51.50
2022-12-11T09:23:19.469Z,29.63
2022-12-11T09:24:20.685Z,33.25
2022-12-11T09:25:21.874Z,31.50
2022-12-11T09:26:22.978Z,42.45
2022-12-11T09:27:24.101Z,37.38
2022-12-11T09:28:25.220Z,38.30
2022-12-11T09:29:26.384Z,41.42
2022-12-11T09:30:27.225Z,37.13
2022-12-11T09:31:29.822Z,59.67
2022-12-11T09:32:30.994Z,37.97
2022-12-11T09:33:31.834Z,37.10
2022-12-11T09:34:33.945Z,38.33
2022-12-11T09:35:34.808Z,34.70
2022-12-11T09:36:37.863Z,33.70
2022-12-11T09:37:38.686Z,26.23
2022-12-11T09:38:40.004Z,25.83
2022-12-11T09:39:41.193Z,24.40
2022-12-11T09:40:42.631Z,41.67
2022-12-11T09:41:48.984Z,38.58
2022-12-11T09:42:52.751Z,39.45
2022-12-11T09:43:58.619Z,40.92
2022-12-11T09:45:01.463Z,34.60
2022-12-11T09:46:04.515Z,39.33
2022-12-11T09:47:12.169Z,36.72
2022-12-11T09:48:14.706Z,30.35
2022-12-11T09:49:23.165Z,41.63
2022-12-11T09:50:25.745Z,34.55
2022-12-11T09:51:29.200Z,38.47
2022-12-11T09:52:34.239Z,35.85
2022-12-11T09:53:35.403Z,38.40
2022-12-11T09:54:37.157Z,35.35
2022-12-11T09:55:41.838Z,32.58
2022-12-11T09:56:47.260Z,28.10
2022-12-11T09:57:52.914Z,36.90
2022-12-11T09:59:00.858Z,32.05
2022-12-11T10:00:14.233Z,31.73
2022-12-11T10:01:19.677Z,34.95
2022-12-11T10:02:25.410Z,44.33
2022-12-11T10:03:45.289Z,33.63
2022-12-11T10:04:49.830Z,46.00
2022-12-11T10:05:57.325Z,31.88
2022-12-11T10:07:04.622Z,35.38
2022-12-11T10:08:10.441Z,37.88
2022-12-11T10:09:16.041Z,32.65
2022-12-11T10:10:20.375Z,40.17
2022-12-11T10:11:28.676Z,30.52
2022-12-11T10:12:37.635Z,32.47
2022-12-11T10:13:45.544Z,29.75
2022-12-11T10:14:51.796Z,29.10
2022-12-11T10:15:56.215Z,28.70
2022-12-11T10:16:59.376Z,28.63
2022-12-11T10:18:04.933Z,33.65
2022-12-11T10:19:12.025Z,25.27
2022-12-11T10:20:18.223Z,24.13
2022-12-11T12:41:18.842Z,34.01
2022-12-11T12:42:24.836Z,33.00
2022-12-11T12:43:42.605Z,43.15
2022-12-11T12:44:50.153Z,41.17
2022-12-11T12:45:53.685Z,29.75
2022-12-11T12:46:57.184Z,28.27
2022-12-11T12:47:58.345Z,28.80
2022-12-11T12:49:00.865Z,38.08
2022-12-11T12:50:04.353Z,29.25
2022-12-11T12:51:05.991Z,32.92
2022-12-11T12:52:11.633Z,30.00
2022-12-11T12:53:15.909Z,26.02
2022-12-11T12:54:17.943Z,33.33
2022-12-11T12:56:24.524Z,24.60
2022-12-11T12:57:25.408Z,34.67
2022-12-11T12:58:28.082Z,26.07
2022-12-11T12:59:29.379Z,25.20
2022-12-11T13:00:34.176Z,29.67
2022-12-11T13:01:38.078Z,24.90
2022-12-11T13:02:47.408Z,23.55
2022-12-11T13:03:50.621Z,27.42
2022-12-11T13:04:56.795Z,21.52
2022-12-11T13:05:59.355Z,22.17
2022-12-11T13:07:10.278Z,23.70
2022-12-11T13:08:11.563Z,33.67
2022-12-11T13:09:15.449Z,23.73
2022-12-11T13:10:24.071Z,25.25
2022-12-11T13:11:32.177Z,24.33
2022-12-11T13:12:38.999Z,24.17
2022-12-11T13:13:41.419Z,25.85
2022-12-11T13:14:42.335Z,20.50
2022-12-11T13:15:43.706Z,21.43
2022-12-11T13:16:45.334Z,20.20
2022-12-11T13:17:46.703Z,22.67
2022-12-11T13:18:48.337Z,20.92
2022-12-11T13:19:49.825Z,20.95
2022-12-11T13:20:51.523Z,18.60
2022-12-11T13:21:56.590Z,18.02
2022-12-11T13:23:16.343Z,17.00
2022-12-11T13:24:24.927Z,19.48
2022-12-11T13:25:27.975Z,19.08
2022-12-11T13:26:29.651Z,20.40
2022-12-11T13:27:37.411Z,18.67
2022-12-11T13:28:50.305Z,19.35
2022-12-11T13:29:51.196Z,18.75
2022-12-11T13:30:59.722Z,20.03
2022-12-11T13:32:02.027Z,18.58
2022-12-11T13:33:05.232Z,18.23
2022-12-11T13:34:08.094Z,17.50
2022-12-11T13:35:15.243Z,18.52
2022-12-11T13:36:30.426Z,16.48
2022-12-11T13:37:33.166Z,18.00
2022-12-11T13:38:34.930Z,17.55
2022-12-11T13:39:39.158Z,18.25
2022-12-11T13:40:41.163Z,17.60
2022-12-11T13:42:47.908Z,17.48
2022-12-11T13:43:49.200Z,16.33
2022-12-11T13:44:50.902Z,16.70
2022-12-11T13:45:53.684Z,17.10
2022-12-11T13:46:56.165Z,17.70
2022-12-11T13:47:58.257Z,17.80
2022-12-11T13:49:01.126Z,18.80
2022-12-11T13:50:07.316Z,19.05
2022-12-11T13:51:15.426Z,17.27
2022-12-11T13:52:17.357Z,18.65
2022-12-11T13:54:19.398Z,16.75
2022-12-11T13:55:22.677Z,19.40
2022-12-11T13:56:23.886Z,17.48
2022-12-11T13:57:25.721Z,17.92
2022-12-11T13:58:28.124Z,17.58
2022-12-11T13:59:31.405Z,17.25
2022-12-11T14:00:32.984Z,16.95
2022-12-11T14:01:34.404Z,17.08
2022-12-11T14:02:38.521Z,16.70
2022-12-11T14:03:40.374Z,15.50
2022-12-11T14:04:41.707Z,15.60
2022-12-11T14:05:42.604Z,16.05
2022-12-11T14:06:43.827Z,15.73
2022-12-11T14:07:47.390Z,16.30
2022-12-11T14:08:49.452Z,14.68
2022-12-11T14:10:51.701Z,17.15
2022-12-11T14:11:56.858Z,16.23
2022-12-11T14:13:00.554Z,17.05
2022-12-11T14:14:04.081Z,15.35
2022-12-11T14:15:05.584Z,15.15
2022-12-11T14:16:06.631Z,16.52
2022-12-11T14:17:10.972Z,16.35
2022-12-11T14:18:14.647Z,17.02
2022-12-11T14:19:17.792Z,17.05
2022-12-11T14:20:20.469Z,17.50
2022-12-11T14:21:22.352Z,17.38
2022-12-11T14:22:24.785Z,17.98
2022-12-11T14:23:26.706Z,16.88
2022-12-11T14:25:28.907Z,15.25
2022-12-11T14:26:30.737Z,15.55
2022-12-11T14:27:32.912Z,16.77
2022-12-11T14:28:36.877Z,17.05
2022-12-11T14:29:38.710Z,15.80
2022-12-11T14:30:44.909Z,15.52
2022-12-11T14:31:47.118Z,15.52
2022-12-11T14:32:48.525Z,17.33
2022-12-11T14:33:51.536Z,16.45
2022-12-11T14:34:53.347Z,17.63
2022-12-11T14:35:55.267Z,16.75
2022-12-11T14:36:57.414Z,17.02
2022-12-11T14:38:00.472Z,16.52
2022-12-11T14:39:02.180Z,17.90
2022-12-11T14:40:06.480Z,18.10
2022-12-11T14:41:12.078Z,16.65
2022-12-11T14:42:15.229Z,18.42
2022-12-11T14:43:20.837Z,18.52
2022-12-11T14:44:23.735Z,19.63
2022-12-11T14:45:28.502Z,18.80
2022-12-11T14:46:34.102Z,18.60
2022-12-11T14:47:38.387Z,20.45
2022-12-11T14:48:44.570Z,19.38
2022-12-11T14:49:48.255Z,21.17
2022-12-11T14:50:51.181Z,21.58
2022-12-11T14:51:53.160Z,18.52
2022-12-11T14:53:55.565Z,28.63
2022-12-11T14:55:00.085Z,24.38
2022-12-11T14:56:02.639Z,18.67
2022-12-11T14:57:05.913Z,20.35
2022-12-11T14:58:13.766Z,19.25
2022-12-11T14:59:18.629Z,18.38
2022-12-11T15:00:21.407Z,20.42
2022-12-11T15:01:24.140Z,19.38
2022-12-11T15:02:27.248Z,18.70
2022-12-11T15:03:30.621Z,21.23
2022-12-11T15:04:32.723Z,20.75
2022-12-11T15:05:40.396Z,28.13
2022-12-11T15:06:43.303Z,23.75
2022-12-11T15:07:53.724Z,17.35
2022-12-11T15:08:55.371Z,21.15
2022-12-11T15:09:56.556Z,17.67
2022-12-11T15:11:02.123Z,16.83
2022-12-11T15:12:09.726Z,17.85
2022-12-11T15:13:13.243Z,22.80
2022-12-11T15:14:16.002Z,17.23
2022-12-11T15:15:17.660Z,18.23
2022-12-11T15:16:19.713Z,19.77
2022-12-11T15:17:22.280Z,16.73
2022-12-11T15:18:24.137Z,21.08
2022-12-11T15:19:28.515Z,18.00
2022-12-11T15:20:30.197Z,20.48
2022-12-11T15:21:31.631Z,17.50
2022-12-11T15:22:32.923Z,20.10
2022-12-11T15:23:38.070Z,20.90
2022-12-11T15:24:39.806Z,15.82
2022-12-11T15:25:49.532Z,19.70
2022-12-11T15:26:50.715Z,19.08
2022-12-11T15:27:52.450Z,22.05
2022-12-11T15:28:59.397Z,23.60
2022-12-11T15:30:00.616Z,19.85
2022-12-11T15:31:04.146Z,17.40
2022-12-11T15:32:17.774Z,15.10
2022-12-11T15:33:21.332Z,14.25
2022-12-11T15:34:22.910Z,16.42
2022-12-11T15:35:25.184Z,13.82
2022-12-11T15:36:29.952Z,14.15
2022-12-11T15:37:31.950Z,15.70
2022-12-11T15:39:33.758Z,14.68
2022-12-11T15:40:34.652Z,14.70
2022-12-11T15:41:36.074Z,12.90
2022-12-11T15:42:39.102Z,15.82
2022-12-11T15:43:39.966Z,14.02
2022-12-11T15:44:41.746Z,13.00
2022-12-11T15:45:43.006Z,14.02
2022-12-11T15:46:44.229Z,14.95
2022-12-11T15:47:45.769Z,13.38
2022-12-11T15:48:48.188Z,11.80
2022-12-11T15:49:49.327Z,11.98
2022-12-11T15:50:50.458Z,10.10
2022-12-11T15:51:51.702Z,12.68
2022-12-11T15:52:54.166Z,13.20
2022-12-11T15:53:55.310Z,11.30
2022-12-11T15:54:56.130Z,12.07
2022-12-11T15:55:58.520Z,11.40
2022-12-11T15:57:00.974Z,12.38
2022-12-11T15:58:04.247Z,12.15
2022-12-11T15:59:06.520Z,13.48
2022-12-11T16:00:11.254Z,11.70
2022-12-11T16:01:12.500Z,10.60
2022-12-11T16:02:14.166Z,11.65
2022-12-11T16:03:16.998Z,11.55
2022-12-11T16:04:18.949Z,11.63
2022-12-11T16:06:20.852Z,9.60
2022-12-11T16:07:23.101Z,11.38
2022-12-11T16:08:24.330Z,10.93
2022-12-11T16:09:25.578Z,10.80
2022-12-11T16:10:26.997Z,11.93
2022-12-11T16:11:28.324Z,9.32
2022-12-11T16:12:29.226Z,13.65
2022-12-11T16:13:30.361Z,11.27
2022-12-11T16:14:31.196Z,11.95
2022-12-11T16:15:32.413Z,12.50
2022-12-11T16:16:33.639Z,12.35
2022-12-11T16:17:34.521Z,12.90
2022-12-11T16:18:35.657Z,13.70
2022-12-11T16:19:37.449Z,14.40
2022-12-11T16:20:39.553Z,14.05
2022-12-11T19:11:40.917Z,8.18
2022-12-11T19:12:42.453Z,8.85
2022-12-11T19:13:43.612Z,8.98
2022-12-11T19:14:44.756Z,8.63
2022-12-11T19:15:45.914Z,9.20
2022-12-11T19:16:47.141Z,10.27
2022-12-11T19:17:48.278Z,10.93
2022-12-11T19:18:49.437Z,11.15
2022-12-11T19:19:50.280Z,12.23
2022-12-11T19:20:57.702Z,12.10
2022-12-11T19:22:06.021Z,11.77
2022-12-11T19:23:06.893Z,12.95
2022-12-11T19:24:09.129Z,12.57
2022-12-11T19:25:10.729Z,12.75
2022-12-11T19:26:12.525Z,12.50
2022-12-11T19:27:14.386Z,12.93
2022-12-11T19:28:15.709Z,13.05
2022-12-11T19:29:18.678Z,13.20
2022-12-11T19:30:19.973Z,12.35
2022-12-11T19:31:21.922Z,12.13
2022-12-11T19:32:22.813Z,12.20
2022-12-11T19:33:23.958Z,11.85
2022-12-11T19:34:25.314Z,11.95
2022-12-11T19:35:26.150Z,11.50
2022-12-11T19:36:28.208Z,10.35
2022-12-11T19:38:30.053Z,10.20
2022-12-11T19:39:30.924Z,10.18
2022-12-11T19:40:32.087Z,11.23
2022-12-11T19:41:33.275Z,12.85
2022-12-11T19:42:34.817Z,12.43
2022-12-11T19:43:36.085Z,10.50
2022-12-11T19:44:36.920Z,10.93
2022-12-11T19:45:38.272Z,10.48
2022-12-11T19:46:39.258Z,9.90
2022-12-11T19:47:40.429Z,11.17
2022-12-11T19:48:41.705Z,10.68
2022-12-11T19:49:43.018Z,11.18
2022-12-11T19:50:44.205Z,11.05
2022-12-11T19:51:45.346Z,10.88
2022-12-11T19:52:46.737Z,11.93
2022-12-11T19:53:48.117Z,11.00
2022-12-11T19:54:49.257Z,11.82
2022-12-11T19:55:50.277Z,11.77
2022-12-11T19:56:51.413Z,11.70
2022-12-11T19:57:53.281Z,12.32
2022-12-11T19:58:54.127Z,12.90
2022-12-11T19:59:57.413Z,11.18
2022-12-11T20:00:59.241Z,10.35
2022-12-11T20:02:00.628Z,10.98
2022-12-11T20:03:01.849Z,10.45
2022-12-11T20:04:04.409Z,10.15
2022-12-11T20:05:05.794Z,9.50
2022-12-11T20:06:07.769Z,10.05
2022-12-11T20:08:35.660Z,9.90
2022-12-11T20:09:32.884Z,9.18
2022-12-11T20:10:33.978Z,8.95
2022-12-11T20:11:35.127Z,9.68
2022-12-11T20:12:36.647Z,8.77
2022-12-11T20:13:39.939Z,8.85
2022-12-11T20:14:41.142Z,9.27
2022-12-11T20:15:42.272Z,8.60
2022-12-11T20:17:10.034Z,8.82
2022-12-11T20:18:04.637Z,9.73
2022-12-11T20:19:05.493Z,9.32
2022-12-11T20:20:07.060Z,9.38
2022-12-11T20:21:09.242Z,8.60
2022-12-11T20:22:10.432Z,8.88
2022-12-11T20:23:11.271Z,9.40
2022-12-11T20:24:12.453Z,8.87
2022-12-11T20:25:13.780Z,9.32
2022-12-11T20:26:16.376Z,11.07
2022-12-11T20:27:17.672Z,10.30
2022-12-11T20:28:18.534Z,10.93
2022-12-11T20:29:20.388Z,11.07
2022-12-11T20:30:22.841Z,9.90
2022-12-11T20:31:24.937Z,10.50
2022-12-11T20:32:26.298Z,10.75
2022-12-11T20:33:27.346Z,12.88
2022-12-11T20:34:28.541Z,12.02
2022-12-11T20:35:29.701Z,14.00
2022-12-11T20:36:30.568Z,12.93
2022-12-11T20:37:32.277Z,12.95
2022-12-11T20:38:34.658Z,10.90
2022-12-11T20:39:35.985Z,12.52
2022-12-11T20:40:36.866Z,13.63
2022-12-11T20:41:37.993Z,12.90
2022-12-11T20:42:39.813Z,12.88
2022-12-11T20:43:41.083Z,12.60
2022-12-11T20:44:48.723Z,11.88
2022-12-11T20:45:50.228Z,14.85
2022-12-11T20:46:51.496Z,14.77
2022-12-11T20:47:52.673Z,11.10
2022-12-11T20:48:54.654Z,15.48
2022-12-11T20:50:58.608Z,14.25
2022-12-11T20:51:59.756Z,11.70
2022-12-11T20:53:00.913Z,9.95
2022-12-11T20:54:02.097Z,10.45
2022-12-11T20:55:03.747Z,14.77
2022-12-11T20:56:08.162Z,12.85
2022-12-11T20:57:09.629Z,18.88
2022-12-11T20:58:10.464Z,13.18
2022-12-11T20:59:11.744Z,11.07
2022-12-11T21:00:16.105Z,11.27
2022-12-11T21:01:18.512Z,10.52
2022-12-11T21:02:19.752Z,10.43
2022-12-11T21:03:20.612Z,8.85
2022-12-11T21:04:21.950Z,9.50
2022-12-11T21:05:22.974Z,9.90
2022-12-11T21:06:25.076Z,10.05
2022-12-11T21:07:26.217Z,9.80
2022-12-11T21:08:27.066Z,10.50
2022-12-11T21:09:28.589Z,10.10
2022-12-11T21:10:29.775Z,9.38
2022-12-11T21:11:30.795Z,9.60
2022-12-11T21:12:31.989Z,8.30
2022-12-11T21:13:33.265Z,9.27
2022-12-11T21:14:34.730Z,9.10
2022-12-11T21:15:36.680Z,9.23
2022-12-11T21:17:38.523Z,8.30
2022-12-11T21:18:40.788Z,8.55
2022-12-11T21:19:41.922Z,9.32
2022-12-11T21:20:43.440Z,9.13
2022-12-11T21:21:44.935Z,8.93
2022-12-11T21:22:46.101Z,8.32
2022-12-11T21:23:47.647Z,8.65
2022-12-11T21:24:48.785Z,8.13
2022-12-11T21:25:49.917Z,8.43
2022-12-11T21:26:51.077Z,8.45
2022-12-11T21:27:51.943Z,7.80
2022-12-11T21:28:53.084Z,7.40
2022-12-11T21:29:53.914Z,8.02
2022-12-11T21:30:59.066Z,7.90
2022-12-11T21:32:00.317Z,6.55
2022-12-11T21:33:01.233Z,7.57
2022-12-11T21:34:03.143Z,7.57
2022-12-11T21:35:04.558Z,6.85
2022-12-11T21:36:06.262Z,7.10
2022-12-11T21:37:07.466Z,6.75
2022-12-11T21:38:09.174Z,6.60
2022-12-11T21:39:11.475Z,7.65
2022-12-11T21:40:13.041Z,7.95
2022-12-11T21:41:14.949Z,8.30
2022-12-11T21:42:16.129Z,8.00
2022-12-11T21:43:17.186Z,8.20
2022-12-11T21:47:01.329Z,7.47
2022-12-11T21:48:02.348Z,7.03
2022-12-11T21:49:03.777Z,7.43
2022-12-11T21:50:05.028Z,7.03
2022-12-11T21:51:06.961Z,7.65
2022-12-11T21:52:08.402Z,7.57
2022-12-11T21:53:09.294Z,7.75
2022-12-11T21:54:13.352Z,10.43
2022-12-11T21:55:14.704Z,8.27
2022-12-11T21:56:17.254Z,8.95
2022-12-11T21:57:24.398Z,9.10
2022-12-11T21:58:27.362Z,8.55
2022-12-11T21:59:31.792Z,7.90
2022-12-11T22:00:34.589Z,8.10
2022-12-11T22:01:37.716Z,7.53
2022-12-11T22:02:41.211Z,8.02
2022-12-11T22:03:42.607Z,8.02
2022-12-11T22:04:46.641Z,7.10
2022-12-11T22:05:47.815Z,6.70
2022-12-11T22:06:48.965Z,6.60
2022-12-11T22:07:49.920Z,6.55
2022-12-11T22:08:51.106Z,6.80
2022-12-11T22:09:52.284Z,6.38
2022-12-11T22:10:53.298Z,7.03
2022-12-11T22:11:58.372Z,6.95
2022-12-11T22:13:00.038Z,8.30
2022-12-11T22:14:00.986Z,7.47
2022-12-11T22:15:02.126Z,7.95
2022-12-11T22:16:03.087Z,7.22
2022-12-11T22:17:04.256Z,7.65
2022-12-11T22:18:06.165Z,7.07
2022-12-11T22:19:07.033Z,6.63
2022-12-11T22:20:08.730Z,7.43
2022-12-11T22:21:09.977Z,7.85
2022-12-11T22:22:11.369Z,7.38
2022-12-11T22:23:12.287Z,7.35
2022-12-11T22:24:13.440Z,8.30
2022-12-11T22:25:14.553Z,8.52
2022-12-11T22:26:16.999Z,9.23
2022-12-11T22:27:23.324Z,7.47
2022-12-11T22:28:24.953Z,6.93
2022-12-11T22:29:25.792Z,6.90
2022-12-11T22:30:27.015Z,6.93
2022-12-11T22:31:28.081Z,5.40
2022-12-11T22:32:29.265Z,5.70
2022-12-11T22:33:30.798Z,5.55
2022-12-11T22:34:31.948Z,4.90
2022-12-11T22:35:32.799Z,5.45
2022-12-11T22:36:33.960Z,4.70
2022-12-11T22:37:35.129Z,5.50
2022-12-11T22:38:36.108Z,5.20
2022-12-11T22:39:37.259Z,4.90
2022-12-11T22:40:38.909Z,4.80
2022-12-11T22:41:41.583Z,4.50
2022-12-11T22:42:43.426Z,5.32
2022-12-11T22:43:44.289Z,5.32
2022-12-11T22:44:45.430Z,5.88
2022-12-11T22:45:46.635Z,8.25
2022-12-11T22:46:50.174Z,5.82
2022-12-11T22:47:51.825Z,5.00
2022-12-11T22:48:53.629Z,5.03
2022-12-11T22:49:54.901Z,5.78
2022-12-11T22:50:55.733Z,6.53
2022-12-11T22:51:57.014Z,6.17
2022-12-11T22:52:57.835Z,5.57
2022-12-11T22:53:59.073Z,5.57
2022-12-11T22:54:59.963Z,5.82
2022-12-11T22:56:03.221Z,4.65
2022-12-11T22:57:04.352Z,5.80
2022-12-11T22:58:05.205Z,5.60
2022-12-11T22:59:06.840Z,6.13
2022-12-11T23:00:08.921Z,5.63
2022-12-11T23:02:11.319Z,4.60
2022-12-11T23:03:12.654Z,5.13
2022-12-11T23:04:14.289Z,5.50
2022-12-11T23:05:15.453Z,6.15
2022-12-11T23:06:17.217Z,6.47
2022-12-11T23:07:18.404Z,6.03
2022-12-11T23:08:19.414Z,5.72
2022-12-11T23:09:20.697Z,4.85
2022-12-11T23:10:21.840Z,5.43
2022-12-11T23:11:23.981Z,5.90
2022-12-11T23:12:25.133Z,6.63
2022-12-11T23:13:26.001Z,6.07
2022-12-11T23:14:27.423Z,6.65
2022-12-11T23:15:28.243Z,7.28
2022-12-11T23:16:29.463Z,7.65
2022-12-11T23:17:30.365Z,8.07
2022-12-11T23:18:32.101Z,8.37
2022-12-11T23:19:34.253Z,9.68
2022-12-11T23:20:35.090Z,9.75
2022-12-11T23:21:36.283Z,9.70
2022-12-11T23:22:37.141Z,10.32
2022-12-11T23:23:38.433Z,9.83
2022-12-11T23:24:39.655Z,9.40
2022-12-11T23:25:40.522Z,8.57
2022-12-11T23:26:41.838Z,7.78
2022-12-11T23:27:42.695Z,8.57
2022-12-11T23:28:44.366Z,9.00
2022-12-11T23:29:45.278Z,9.27
2022-12-11T23:30:46.751Z,9.60
2022-12-11T23:31:47.929Z,9.52
2022-12-11T23:32:48.749Z,10.23
2022-12-11T23:33:50.165Z,9.27
2022-12-11T23:34:51.697Z,8.32
2022-12-11T23:35:52.841Z,6.63
2022-12-11T23:36:53.698Z,8.77
2022-12-11T23:37:54.854Z,8.95
2022-12-11T23:38:55.727Z,8.60
2022-12-11T23:39:56.921Z,7.30
2022-12-11T23:40:57.934Z,7.30
2022-12-11T23:41:59.071Z,7.40
2022-12-11T23:43:00.010Z,6.50
2022-12-11T23:44:01.162Z,6.60
2022-12-11T23:45:02.061Z,6.68
2022-12-11T23:46:03.614Z,6.28
2022-12-11T23:47:04.629Z,6.43
2022-12-11T23:48:05.771Z,6.82
2022-12-11T23:49:06.903Z,6.40
2022-12-11T23:50:09.264Z,6.40
2022-12-11T23:51:12.172Z,6.85
2022-12-11T23:52:13.027Z,6.63
2022-12-11T23:53:14.493Z,6.17
2022-12-11T23:54:15.636Z,6.32
2022-12-11T23:55:16.528Z,6.22